createdAt,value
2018-02-08T00:05:26.542Z,69.10
2018-02-08T00:07:08.085Z,69.00
2018-02-08T00:13:33.864Z,68.40
2018-02-08T00:19:08.079Z,70.70
2018-02-08T00:24:31.781Z,72.40
2018-02-08T00:26:08.744Z,72.90
2018-02-08T00:27:48.196Z,72.20
2018-02-08T00:29:25.276Z,72.90
2018-02-08T00:31:02.646Z,72.50
2018-02-08T00:32:39.115Z,71.70
2018-02-08T00:34:16.658Z,71.30
2018-02-08T00:35:54.185Z,70.80
2018-02-08T00:37:31.492Z,70.40
2018-02-08T00:39:08.487Z,70.50
2018-02-08T00:40:45.450Z,69.90
2018-02-08T00:42:22.444Z,69.50
2018-02-08T00:43:58.902Z,68.80
2018-02-08T00:45:36.143Z,69.00
2018-02-08T00:47:14.359Z,69.10
2018-02-08T00:48:51.975Z,69.10
2018-02-08T00:50:29.336Z,69.10
2018-02-08T00:52:06.412Z,69.40
2018-02-08T00:53:43.837Z,68.90
2018-02-08T00:55:20.865Z,68.80
2018-02-08T00:56:57.900Z,68.20
2018-02-08T00:58:34.979Z,68.00
2018-02-08T01:00:16.707Z,68.00
2018-02-08T01:08:19.521Z,67.80
2018-02-08T01:09:56.641Z,67.60
2018-02-08T01:11:34.061Z,67.50
2018-02-08T01:13:11.031Z,67.40
2018-02-08T01:14:48.391Z,68.20
2018-02-08T01:16:24.863Z,68.20
2018-02-08T01:18:01.218Z,69.10
2018-02-08T01:19:38.167Z,68.50
2018-02-08T01:21:15.165Z,67.80
2018-02-08T01:22:51.489Z,67.90
2018-02-08T01:24:28.625Z,67.70
2018-02-08T01:32:42.106Z,69.20
2018-02-08T01:45:55.417Z,67.60
2018-02-08T01:47:32.380Z,67.10
2018-02-08T01:49:08.822Z,67.20
2018-02-08T01:50:46.528Z,67.50
2018-02-08T01:52:23.770Z,68.40
2018-02-08T01:54:00.925Z,68.30
2018-02-08T01:55:38.350Z,68.00
2018-02-08T01:57:16.925Z,68.00
2018-02-08T01:58:55.093Z,67.80
2018-02-08T02:00:32.323Z,67.70
2018-02-08T02:02:09.415Z,67.40
2018-02-08T02:03:46.949Z,67.10
2018-02-08T02:05:25.716Z,66.80
2018-02-08T02:07:02.679Z,67.00
2018-02-08T02:08:39.204Z,67.20
2018-02-08T02:10:16.332Z,67.00
2018-02-08T02:11:53.591Z,67.80
2018-02-08T02:13:30.189Z,67.20
2018-02-08T02:15:07.931Z,66.90
2018-02-08T02:16:45.507Z,66.60
2018-02-08T02:18:22.314Z,66.60
2018-02-08T02:19:59.575Z,66.70
2018-02-08T02:23:25.953Z,66.70
2018-02-08T02:32:17.179Z,66.80
2018-02-08T02:33:54.671Z,67.60
2018-02-08T02:35:30.928Z,67.90
2018-02-08T02:37:07.188Z,67.90
2018-02-08T02:40:38.431Z,68.10
2018-02-08T02:42:21.159Z,69.20
2018-02-08T02:46:42.203Z,69.50
2018-02-08T02:48:18.532Z,69.70
2018-02-08T02:49:55.697Z,70.60
2018-02-08T02:51:32.056Z,70.40
2018-02-08T02:53:09.534Z,69.40
2018-02-08T02:54:45.956Z,69.40
2018-02-08T02:56:22.293Z,69.40
2018-02-08T02:58:02.417Z,70.50
2018-02-08T02:59:39.936Z,70.70
2018-02-08T03:01:16.313Z,70.60
2018-02-08T03:02:52.704Z,70.20
2018-02-08T03:04:29.033Z,70.20
2018-02-08T03:06:05.441Z,71.20
2018-02-08T03:07:42.954Z,72.10
2018-02-08T03:09:19.275Z,72.10
2018-02-08T03:10:55.822Z,72.10
2018-02-08T03:12:33.960Z,73.80
2018-02-08T03:14:10.461Z,73.80
2018-02-08T03:15:46.735Z,74.30
2018-02-08T03:17:23.165Z,75.00
2018-02-08T03:18:59.961Z,74.70
2018-02-08T03:20:36.421Z,74.60
2018-02-08T03:22:13.302Z,74.20
2018-02-08T03:23:50.443Z,74.30
2018-02-08T03:25:26.840Z,73.70
2018-02-08T03:27:03.714Z,72.70
2018-02-08T03:28:40.604Z,72.40
2018-02-08T03:30:17.173Z,71.30
2018-02-08T03:31:53.638Z,70.40
2018-02-08T03:33:30.021Z,69.90
2018-02-08T03:35:06.708Z,69.80
2018-02-08T03:36:43.112Z,69.90
2018-02-08T03:38:19.441Z,68.50
2018-02-08T03:39:55.854Z,68.40
2018-02-08T03:41:32.232Z,69.00
2018-02-08T03:44:40.106Z,70.40
2018-02-08T03:46:16.764Z,70.60
2018-02-08T03:47:53.048Z,70.90
2018-02-08T03:49:46.608Z,71.40
2018-02-08T03:51:28.497Z,72.20
2018-02-08T03:56:47.910Z,72.70
2018-02-08T03:58:24.347Z,72.60
2018-02-08T04:00:00.912Z,72.70
2018-02-08T04:01:37.978Z,72.40
2018-02-08T04:03:14.277Z,72.00
2018-02-08T04:04:51.228Z,71.20
2018-02-08T04:06:27.488Z,70.70
2018-02-08T04:08:04.215Z,70.70
2018-02-08T04:17:41.180Z,69.80
2018-02-08T04:19:17.448Z,75.20
2018-02-08T04:20:54.894Z,76.50
2018-02-08T04:22:31.398Z,76.50
2018-02-08T04:24:08.419Z,76.70
2018-02-08T04:25:45.247Z,76.70
2018-02-08T04:27:22.103Z,76.20
2018-02-08T04:28:58.412Z,76.50
2018-02-08T04:30:35.171Z,76.40
2018-02-08T04:32:17.325Z,76.70
2018-02-08T04:36:21.200Z,75.30
2018-02-08T04:37:57.563Z,73.50
2018-02-08T04:41:53.719Z,73.50
2018-02-08T04:44:20.194Z,75.70
2018-02-08T04:47:08.922Z,75.60
2018-02-08T04:48:46.186Z,76.30
2018-02-08T04:50:23.733Z,76.10
2018-02-08T04:52:01.123Z,76.70
2018-02-08T04:53:37.543Z,77.20
2018-02-08T04:55:14.801Z,77.80
2018-02-08T04:56:53.615Z,78.20
2018-02-08T04:58:32.057Z,78.20
2018-02-08T05:00:09.141Z,78.20
2018-02-08T05:01:45.583Z,78.30
2018-02-08T05:08:33.891Z,79.70
2018-02-08T05:14:49.839Z,85.80
2018-02-08T05:23:01.199Z,87.00
2018-02-08T05:24:37.897Z,86.80
2018-02-08T05:26:14.261Z,86.30
2018-02-08T05:27:51.105Z,85.90
2018-02-08T05:29:44.173Z,85.40
2018-02-08T05:37:10.028Z,85.20
2018-02-08T05:41:10.128Z,85.60
2018-02-08T05:42:47.178Z,84.30
2018-02-08T05:44:23.987Z,83.60
2018-02-08T05:46:00.618Z,83.70
2018-02-08T05:47:37.020Z,83.90
2018-02-08T05:49:13.342Z,83.80
2018-02-08T05:50:50.955Z,84.00
2018-02-08T05:52:27.251Z,84.00
2018-02-08T05:54:03.692Z,83.70
2018-02-08T05:55:40.116Z,85.10
2018-02-08T05:57:16.815Z,85.60
2018-02-08T05:58:56.315Z,85.60
2018-02-08T06:00:44.347Z,85.60
2018-02-08T06:12:01.688Z,85.60
2018-02-08T06:13:38.063Z,88.20
2018-02-08T06:15:17.341Z,88.60
2018-02-08T06:16:54.583Z,89.20
2018-02-08T06:18:31.399Z,89.10
2018-02-08T06:20:09.445Z,88.60
2018-02-08T06:21:48.296Z,88.60
2018-02-08T06:23:25.071Z,89.20
2018-02-08T06:25:01.721Z,89.80
2018-02-08T06:26:38.277Z,89.20
2018-02-08T06:28:14.696Z,88.30
2018-02-08T06:29:54.107Z,88.30
2018-02-08T06:35:54.520Z,88.20
2018-02-08T06:37:31.527Z,89.60
2018-02-08T06:39:07.897Z,90.30
2018-02-08T06:40:44.251Z,90.40
2018-02-08T06:42:20.920Z,90.50
2018-02-08T06:43:57.766Z,90.70
2018-02-08T06:45:34.128Z,89.80
2018-02-08T06:49:02.863Z,88.60
2018-02-08T06:55:47.934Z,86.50
2018-02-08T06:57:32.024Z,88.20
2018-02-08T06:59:08.585Z,89.30
2018-02-08T07:00:45.765Z,88.70
2018-02-08T07:02:22.333Z,88.70
2018-02-08T07:03:59.339Z,88.90
2018-02-08T07:05:35.866Z,90.30
2018-02-08T07:07:13.069Z,90.50
2018-02-08T07:08:55.130Z,91.00
2018-02-08T07:10:36.077Z,91.60
2018-02-08T07:12:19.525Z,92.50
2018-02-08T07:17:30.822Z,92.80
2018-02-08T07:20:52.492Z,92.80
2018-02-08T07:22:28.895Z,92.40
2018-02-08T07:24:05.518Z,92.00
2018-02-08T07:25:43.082Z,91.20
2018-02-08T07:27:19.584Z,91.20
2018-02-08T07:28:57.620Z,91.40
2018-02-08T07:30:34.289Z,91.40
2018-02-08T07:32:11.093Z,91.60
2018-02-08T07:33:47.561Z,91.50
2018-02-08T07:35:24.152Z,91.50
2018-02-08T07:37:02.598Z,91.30
2018-02-08T07:38:39.734Z,91.20
2018-02-08T07:40:16.337Z,91.00
2018-02-08T07:41:52.832Z,91.10
2018-02-08T07:43:29.310Z,91.10
2018-02-08T07:45:07.959Z,91.10
2018-02-08T07:46:44.493Z,91.30
2018-02-08T07:48:21.681Z,90.70
2018-02-08T07:49:58.642Z,90.60
2018-02-08T07:51:35.643Z,90.70
2018-02-08T07:53:12.372Z,90.50
2018-02-08T07:54:48.973Z,90.10
2018-02-08T07:56:27.018Z,88.90
2018-02-08T07:58:03.856Z,88.70
2018-02-08T07:59:40.636Z,88.60
2018-02-08T08:01:17.108Z,88.20
2018-02-08T08:02:53.647Z,87.60
2018-02-08T08:04:31.141Z,87.60
2018-02-08T08:06:07.617Z,87.60
2018-02-08T08:07:44.870Z,88.80
2018-02-08T08:09:21.502Z,88.70
2018-02-08T08:10:58.485Z,89.20
2018-02-08T08:12:35.183Z,88.90
2018-02-08T08:14:11.949Z,89.60
2018-02-08T08:15:48.411Z,89.70
2018-02-08T08:17:26.616Z,89.70
2018-02-08T08:19:16.112Z,89.80
2018-02-08T08:20:55.516Z,90.60
2018-02-08T08:22:32.027Z,90.80
2018-02-08T08:24:08.934Z,90.80
2018-02-08T08:25:45.405Z,90.50
2018-02-08T08:27:21.799Z,90.50
2018-02-08T08:28:58.228Z,90.70
2018-02-08T08:30:35.140Z,90.30
2018-02-08T08:32:11.636Z,90.40
2018-02-08T08:33:48.032Z,90.70
2018-02-08T08:35:25.283Z,90.60
2018-02-08T08:37:02.258Z,90.60
2018-02-08T08:38:39.456Z,89.10
2018-02-08T08:40:16.841Z,89.10
2018-02-08T08:41:53.374Z,89.80
2018-02-08T08:43:32.599Z,88.90
2018-02-08T08:45:10.017Z,87.90
2018-02-08T08:46:49.003Z,87.80
2018-02-08T08:48:25.507Z,87.40
2018-02-08T08:50:02.099Z,85.60
2018-02-08T08:51:39.369Z,85.20
2018-02-08T08:53:15.906Z,84.70
2018-02-08T08:54:53.409Z,84.70
2018-02-08T08:56:30.243Z,82.80
2018-02-08T08:58:06.698Z,79.60
2018-02-08T08:59:43.484Z,76.50
2018-02-08T09:01:20.062Z,77.80
2018-02-08T09:02:57.631Z,80.80
2018-02-08T09:04:34.337Z,80.70
2018-02-08T09:06:11.140Z,81.60
2018-02-08T09:07:48.078Z,82.40
2018-02-08T09:09:24.890Z,83.00
2018-02-08T09:11:01.412Z,83.50
2018-02-08T09:12:37.982Z,84.10
2018-02-08T09:14:14.477Z,84.50
2018-02-08T09:15:52.598Z,84.00
2018-02-08T09:17:29.267Z,83.40
2018-02-08T09:19:07.052Z,85.10
2018-02-08T09:20:43.633Z,85.10
2018-02-08T09:22:21.443Z,84.20
2018-02-08T09:23:57.838Z,84.30
2018-02-08T09:25:34.274Z,84.50
2018-02-08T09:27:11.607Z,83.90
2018-02-08T09:28:49.464Z,83.70
2018-02-08T09:30:25.917Z,83.70
2018-02-08T09:32:02.912Z,84.10
2018-02-08T09:33:39.345Z,84.40
2018-02-08T09:35:15.986Z,82.90
2018-02-08T09:36:52.381Z,82.80
2018-02-08T09:38:29.865Z,83.70
2018-02-08T09:40:07.569Z,83.60
2018-02-08T09:41:45.042Z,83.80
2018-02-08T09:43:22.231Z,85.10
2018-02-08T09:45:00.155Z,85.60
2018-02-08T09:46:36.704Z,85.40
2018-02-08T09:48:13.517Z,85.60
2018-02-08T09:49:54.088Z,85.80
2018-02-08T09:51:30.789Z,83.20
2018-02-08T09:53:07.216Z,83.30
2018-02-08T09:54:43.976Z,84.30
2018-02-08T09:56:20.487Z,84.40
2018-02-08T09:57:57.007Z,83.60
2018-02-08T09:59:33.580Z,82.40
2018-02-08T10:01:10.532Z,80.10
2018-02-08T10:02:47.017Z,77.00
2018-02-08T10:04:24.364Z,77.50
2018-02-08T10:06:00.970Z,78.70
2018-02-08T10:07:38.136Z,80.60
2018-02-08T10:09:15.274Z,84.10
2018-02-08T10:10:51.768Z,84.10
2018-02-08T10:12:28.249Z,84.50
2018-02-08T10:14:06.083Z,83.60
2018-02-08T10:15:42.627Z,83.50
2018-02-08T10:17:19.044Z,84.40
2018-02-08T10:18:55.504Z,83.00
2018-02-08T10:20:32.199Z,82.20
2018-02-08T10:22:09.254Z,81.00
2018-02-08T10:23:46.248Z,78.00
2018-02-08T10:25:25.836Z,78.60
2018-02-08T10:27:03.648Z,82.20
2018-02-08T10:28:40.081Z,82.20
2018-02-08T10:30:17.692Z,80.10
2018-02-08T10:31:54.194Z,80.20
2018-02-08T10:33:31.086Z,79.90
2018-02-08T10:35:07.452Z,79.30
2018-02-08T10:36:44.033Z,76.70
2018-02-08T10:40:00.667Z,74.00
2018-02-08T10:41:37.134Z,74.70
2018-02-08T10:43:13.597Z,75.20
2018-02-08T10:44:50.382Z,76.50
2018-02-08T10:46:27.638Z,77.10
2018-02-08T10:48:05.565Z,75.70
2018-02-08T10:49:41.859Z,75.60
2018-02-08T10:51:18.684Z,76.40
2018-02-08T10:52:55.092Z,77.10
2018-02-08T10:54:35.364Z,76.80
2018-02-08T10:56:11.840Z,76.80
2018-02-08T10:57:52.783Z,72.80
2018-02-08T11:09:13.279Z,70.90
2018-02-08T11:10:49.801Z,69.80
2018-02-08T11:12:26.309Z,73.30
2018-02-08T11:14:03.671Z,70.30
2018-02-08T11:15:40.920Z,68.80
2018-02-08T11:17:17.774Z,68.80
2018-02-08T11:18:54.477Z,67.50
2018-02-08T11:24:06.464Z,63.80
2018-02-08T11:25:42.708Z,67.70
2018-02-08T11:27:20.178Z,70.20
2018-02-08T11:28:57.761Z,70.10
2018-02-08T11:30:34.799Z,70.00
2018-02-08T11:32:11.435Z,68.80
2018-02-08T11:33:47.847Z,69.20
2018-02-08T11:35:24.301Z,71.00
2018-02-08T11:37:01.399Z,71.10
2018-02-08T11:38:38.860Z,69.80
2018-02-08T11:40:15.263Z,69.70
2018-02-08T11:43:24.111Z,70.90
2018-02-08T11:45:00.966Z,71.90
2018-02-08T11:46:40.917Z,72.30
2018-02-08T11:48:18.255Z,70.90
2018-02-08T11:49:54.865Z,68.90
2018-02-08T11:51:31.523Z,66.40
2018-02-08T11:53:08.033Z,65.90
2018-02-08T11:54:45.763Z,62.80
2018-02-08T11:56:22.218Z,62.80
2018-02-08T11:58:00.030Z,62.20
2018-02-08T11:59:37.118Z,61.20
2018-02-08T12:01:14.442Z,63.10
2018-02-08T12:02:51.168Z,63.00
2018-02-08T12:04:27.878Z,60.80
2018-02-08T12:06:04.642Z,59.50
2018-02-08T12:07:41.619Z,59.60
2018-02-08T12:09:18.815Z,61.00
2018-02-08T12:10:55.276Z,61.50
2018-02-08T12:12:32.473Z,59.70
2018-02-08T12:14:09.273Z,59.60
2018-02-08T12:15:45.703Z,58.40
2018-02-08T12:17:22.182Z,58.00
2018-02-08T12:18:58.656Z,59.30
2018-02-08T12:20:35.468Z,58.50
2018-02-08T12:22:11.898Z,58.50
2018-02-08T12:23:48.351Z,58.90
2018-02-08T12:25:25.506Z,61.00
2018-02-08T12:27:05.277Z,61.40
2018-02-08T12:28:41.906Z,63.20
2018-02-08T12:30:18.670Z,64.30
2018-02-08T12:31:56.062Z,63.90
2018-02-08T12:33:32.780Z,61.60
2018-02-08T12:35:10.065Z,59.60
2018-02-08T12:36:46.920Z,59.60
2018-02-08T12:38:23.580Z,61.90
2018-02-08T12:40:03.457Z,62.10
2018-02-08T12:41:39.891Z,61.70
2018-02-08T12:43:16.488Z,62.80
2018-02-08T12:44:52.844Z,64.00
2018-02-08T12:46:29.967Z,65.90
2018-02-08T12:48:07.211Z,66.40
2018-02-08T12:49:46.826Z,66.40
2018-02-08T12:51:28.487Z,64.50
2018-02-08T12:53:06.094Z,64.00
2018-02-08T12:54:42.556Z,63.90
2018-02-08T12:56:19.062Z,62.20
2018-02-08T12:57:55.554Z,59.40
2018-02-08T12:59:32.441Z,58.40
2018-02-08T13:01:09.095Z,58.00
2018-02-08T13:02:46.403Z,59.10
2018-02-08T13:04:22.843Z,59.10
2018-02-08T13:05:59.595Z,59.70
2018-02-08T13:07:36.732Z,59.70
2018-02-08T13:09:13.663Z,62.30
2018-02-08T13:10:50.155Z,60.70
2018-02-08T13:12:27.689Z,60.20
2018-02-08T13:14:04.254Z,59.70
2018-02-08T13:15:40.986Z,59.60
2018-02-08T13:17:17.481Z,58.40
2018-02-08T13:18:54.430Z,58.00
2018-02-08T13:20:30.796Z,57.10
2018-02-08T13:22:07.272Z,56.50
2018-02-08T13:23:43.832Z,56.80
2018-02-08T13:25:20.606Z,57.50
2018-02-08T13:26:57.043Z,58.30
2018-02-08T13:28:33.605Z,59.40
2018-02-08T13:30:10.142Z,58.30
2018-02-08T13:31:48.436Z,57.90
2018-02-08T13:33:24.814Z,57.80
2018-02-08T13:35:01.390Z,56.80
2018-02-08T13:36:37.843Z,56.50
2018-02-08T13:38:14.347Z,57.90
2018-02-08T13:39:50.911Z,57.30
2018-02-08T13:41:28.325Z,56.60
2018-02-08T13:43:05.039Z,56.20
2018-02-08T13:44:42.369Z,55.40
2018-02-08T13:46:19.423Z,56.10
2018-02-08T13:47:57.531Z,55.90
2018-02-08T13:49:34.688Z,55.30
2018-02-08T13:51:12.829Z,57.00
2018-02-08T13:52:49.585Z,56.90
2018-02-08T13:54:26.177Z,58.20
2018-02-08T13:56:02.870Z,59.20
2018-02-08T13:57:40.565Z,58.60
2018-02-08T13:59:17.103Z,58.60
2018-02-08T14:00:53.745Z,57.20
2018-02-08T14:02:30.377Z,55.90
2018-02-08T14:04:08.777Z,56.60
2018-02-08T14:05:45.690Z,56.60
2018-02-08T14:07:22.325Z,57.10
2018-02-08T14:08:59.520Z,55.40
2018-02-08T14:10:36.969Z,53.90
2018-02-08T14:12:13.573Z,53.90
2018-02-08T14:13:50.266Z,54.80
2018-02-08T14:15:28.270Z,56.50
2018-02-08T14:17:05.162Z,55.50
2018-02-08T14:18:41.753Z,56.50
2018-02-08T14:20:18.313Z,57.50
2018-02-08T14:21:55.726Z,57.50
2018-02-08T14:23:33.212Z,57.40
2018-02-08T14:25:10.708Z,57.80
2018-02-08T14:26:47.975Z,57.90
2018-02-08T14:28:24.238Z,57.90
2018-02-08T14:30:03.406Z,56.70
2018-02-08T14:31:39.937Z,56.70
2018-02-08T14:33:17.232Z,55.10
2018-02-08T14:34:53.734Z,55.10
2018-02-08T14:36:31.082Z,54.10
2018-02-08T14:38:07.440Z,54.40
2018-02-08T14:39:43.845Z,54.80
2018-02-08T14:41:20.289Z,54.50
2018-02-08T14:42:57.603Z,53.80
2018-02-08T14:44:34.056Z,54.70
2018-02-08T14:46:10.839Z,55.50
2018-02-08T14:47:47.409Z,56.30
2018-02-08T14:49:25.638Z,56.00
2018-02-08T14:51:02.387Z,54.30
2018-02-08T14:52:38.979Z,53.50
2018-02-08T14:54:16.232Z,54.30
2018-02-08T14:55:53.202Z,54.30
2018-02-08T14:57:29.655Z,53.80
2018-02-08T14:59:06.100Z,52.80
2018-02-08T15:00:42.756Z,51.80
2018-02-08T15:02:20.159Z,52.70
2018-02-08T15:03:56.875Z,53.20
2018-02-08T15:05:33.556Z,53.60
2018-02-08T15:07:10.823Z,52.10
2018-02-08T15:08:47.274Z,52.00
2018-02-08T15:10:30.240Z,53.30
2018-02-08T15:12:07.542Z,55.70
2018-02-08T15:13:43.900Z,55.70
2018-02-08T15:16:49.192Z,56.40
2018-02-08T15:18:31.436Z,55.70
2018-02-08T15:20:09.095Z,54.70
2018-02-08T15:21:46.188Z,54.60
2018-02-08T15:23:22.772Z,53.90
2018-02-08T15:25:04.952Z,53.80
2018-02-08T15:26:41.505Z,54.70
2018-02-08T15:28:18.291Z,54.00
2018-02-08T15:29:54.767Z,54.00
2018-02-08T15:31:31.223Z,53.90
2018-02-08T15:33:07.661Z,52.90
2018-02-08T15:34:44.936Z,53.00
2018-02-08T15:36:21.691Z,53.10
2018-02-08T15:37:58.424Z,53.00
2018-02-08T15:39:35.614Z,53.30
2018-02-08T15:41:12.640Z,53.40
2018-02-08T15:42:49.075Z,52.30
2018-02-08T15:44:25.846Z,51.40
2018-02-08T15:46:03.573Z,51.40
2018-02-08T15:47:40.985Z,51.50
2018-02-08T15:49:18.276Z,51.70
2018-02-08T15:50:54.908Z,51.60
2018-02-08T15:52:40.344Z,52.00
2018-02-08T15:54:17.007Z,51.70
2018-02-08T15:55:53.498Z,50.50
2018-02-08T15:57:31.232Z,50.60
2018-02-08T15:59:08.973Z,50.10
2018-02-08T16:00:46.249Z,50.50
2018-02-08T16:02:22.776Z,50.80
2018-02-08T16:03:59.968Z,51.50
2018-02-08T16:05:36.557Z,51.50
2018-02-08T16:07:13.653Z,51.40
2018-02-08T16:08:50.197Z,51.50
2018-02-08T16:10:27.550Z,51.00
2018-02-08T16:12:10.465Z,51.10
2018-02-08T16:14:08.429Z,50.20
2018-02-08T16:15:45.204Z,51.60
2018-02-08T16:17:23.004Z,52.70
2018-02-08T16:19:00.507Z,52.90
2018-02-08T16:20:37.218Z,53.70
2018-02-08T16:22:14.023Z,53.20
2018-02-08T16:23:50.570Z,51.70
2018-02-08T16:25:27.097Z,51.10
2018-02-08T16:27:03.874Z,50.80
2018-02-08T16:28:41.352Z,50.70
2018-02-08T16:30:18.573Z,51.30
2018-02-08T16:31:55.337Z,50.80
2018-02-08T16:33:32.921Z,50.70
2018-02-08T16:35:09.544Z,50.60
2018-02-08T16:36:46.017Z,50.70
2018-02-08T16:38:22.438Z,50.70
2018-02-08T16:39:59.794Z,50.90
2018-02-08T16:41:38.173Z,50.90
2018-02-08T16:43:15.362Z,50.80
2018-02-08T16:44:51.953Z,51.60
2018-02-08T16:46:28.750Z,51.50
2018-02-08T16:48:05.327Z,51.60
2018-02-08T16:49:43.377Z,51.80
2018-02-08T16:51:20.036Z,52.40
2018-02-08T16:52:56.895Z,52.40
2018-02-08T16:54:33.304Z,52.10
2018-02-08T16:56:09.961Z,52.30
2018-02-08T16:57:46.424Z,52.30
2018-02-08T16:59:23.210Z,52.50
2018-02-08T17:00:59.761Z,52.50
2018-02-08T17:02:36.162Z,52.50
2018-02-08T17:04:12.798Z,52.50
2018-02-08T17:05:49.511Z,52.00
2018-02-08T17:07:26.088Z,52.00
2018-02-08T17:09:03.563Z,53.70
2018-02-08T17:10:41.211Z,55.00
2018-02-08T17:12:19.694Z,56.40
2018-02-08T17:13:57.311Z,56.10
2018-02-08T17:15:34.644Z,55.10
2018-02-08T17:17:11.312Z,55.00
2018-02-08T17:18:48.097Z,54.20
2018-02-08T17:20:24.687Z,53.70
2018-02-08T17:22:01.961Z,53.90
2018-02-08T17:23:38.472Z,54.70
2018-02-08T17:25:16.067Z,56.60
2018-02-08T17:26:53.035Z,57.10
2018-02-08T17:28:35.225Z,56.40
2018-02-08T17:30:13.261Z,56.40
2018-02-08T17:31:50.869Z,55.80
2018-02-08T17:33:27.484Z,55.80
2018-02-08T17:35:04.717Z,55.80
2018-02-08T17:36:41.354Z,57.10
2018-02-08T17:38:19.202Z,59.00
2018-02-08T17:39:57.912Z,60.70
2018-02-08T17:41:34.526Z,60.70
2018-02-08T17:43:11.447Z,60.60
2018-02-08T17:44:48.993Z,60.60
2018-02-08T17:46:26.426Z,60.50
2018-02-08T17:48:03.970Z,61.30
2018-02-08T17:49:41.319Z,59.60
2018-02-08T17:51:18.134Z,59.50
2018-02-08T17:52:55.339Z,57.30
2018-02-08T17:54:31.702Z,57.20
2018-02-08T17:56:08.391Z,56.80
2018-02-08T17:57:45.304Z,56.40
2018-02-08T17:59:22.679Z,56.50
2018-02-08T18:00:59.226Z,56.50
2018-02-08T18:02:35.674Z,56.60
2018-02-08T18:04:12.670Z,56.60
2018-02-08T18:05:49.508Z,56.20
2018-02-08T18:07:26.309Z,56.00
2018-02-08T18:09:03.012Z,56.10
2018-02-08T18:10:39.905Z,56.20
2018-02-08T18:12:17.780Z,56.50
2018-02-08T18:13:55.370Z,56.20
2018-02-08T18:15:32.137Z,56.20
2018-02-08T18:17:08.939Z,56.20
2018-02-08T18:18:45.424Z,56.30
2018-02-08T18:20:27.152Z,56.70
2018-02-08T18:22:06.736Z,57.50
2018-02-08T18:23:43.484Z,58.60
2018-02-08T18:25:20.025Z,58.90
2018-02-08T18:26:56.849Z,58.90
2018-02-08T18:28:34.592Z,59.10
2018-02-08T18:30:13.439Z,57.60
2018-02-08T18:31:50.782Z,57.50
2018-02-08T18:33:28.527Z,57.70
2018-02-08T18:36:45.916Z,58.20
2018-02-08T18:38:22.550Z,58.10
2018-02-08T18:39:59.070Z,58.60
2018-02-08T18:41:35.856Z,58.70
2018-02-08T18:43:12.543Z,58.80
2018-02-08T18:44:49.163Z,58.10
2018-02-08T18:46:27.299Z,57.50
2018-02-08T18:48:04.366Z,57.50
2018-02-08T18:49:42.014Z,61.40
2018-02-08T18:51:20.016Z,61.40
2018-02-08T18:52:56.567Z,63.40
2018-02-08T18:54:33.646Z,64.20
2018-02-08T18:56:10.035Z,64.90
2018-02-08T18:57:46.470Z,65.50
2018-02-08T18:59:22.951Z,66.10
2018-02-08T19:01:00.518Z,66.70
2018-02-08T19:02:37.113Z,67.10
2018-02-08T19:04:14.360Z,67.50
2018-02-08T19:05:50.718Z,67.50
2018-02-08T19:07:27.309Z,67.90
2018-02-08T19:09:03.822Z,68.40
2018-02-08T19:10:40.279Z,68.70
2018-02-08T19:12:16.887Z,68.80
2018-02-08T19:13:53.840Z,69.50
2018-02-08T19:15:30.305Z,70.10
2018-02-08T19:17:07.536Z,70.10
2018-02-08T19:18:44.079Z,70.10
2018-02-08T19:20:21.061Z,69.80
2018-02-08T19:21:57.515Z,70.40
2018-02-08T19:23:34.959Z,70.40
2018-02-08T19:25:13.178Z,70.80
2018-02-08T19:26:50.113Z,70.80
2018-02-08T19:28:26.696Z,70.70
2018-02-08T19:30:05.973Z,70.60
2018-02-08T19:31:42.461Z,70.10
2018-02-08T19:33:19.416Z,69.90
2018-02-08T19:34:56.056Z,70.30
2018-02-08T19:36:34.207Z,71.00
2018-02-08T19:38:10.720Z,71.70
2018-02-08T19:39:48.149Z,73.10
2018-02-08T19:41:24.605Z,73.80
2018-02-08T19:43:01.139Z,74.70
2018-02-08T19:44:37.737Z,75.40
2018-02-08T19:46:14.991Z,75.70
2018-02-08T19:47:51.561Z,76.10
2018-02-08T19:49:28.321Z,76.40
2018-02-08T19:51:05.700Z,77.00
2018-02-08T19:52:42.765Z,76.90
2018-02-08T19:54:19.366Z,77.30
2018-02-08T19:55:55.878Z,77.70
2018-02-08T19:57:32.389Z,78.10
2018-02-08T19:59:09.400Z,78.20
2018-02-08T20:00:46.193Z,78.30
2018-02-08T20:02:22.587Z,78.30
2018-02-08T20:03:59.096Z,78.50
2018-02-08T20:05:35.926Z,78.70
2018-02-08T20:07:12.601Z,78.80
2018-02-08T20:08:49.503Z,78.90
2018-02-08T20:10:26.320Z,78.80
2018-02-08T20:12:50.733Z,79.10
2018-02-08T20:14:31.450Z,79.30
2018-02-08T20:16:09.152Z,79.40
2018-02-08T20:17:46.986Z,79.50
2018-02-08T20:19:23.537Z,79.70
2018-02-08T20:21:00.782Z,79.60
2018-02-08T20:22:37.250Z,79.60
2018-02-08T20:24:13.995Z,79.60
2018-02-08T20:25:50.690Z,79.60
2018-02-08T20:27:27.106Z,79.70
2018-02-08T20:29:04.534Z,79.90
2018-02-08T20:30:47.838Z,80.00
2018-02-08T20:32:24.430Z,80.00
2018-02-08T20:34:02.976Z,79.70
2018-02-08T20:35:45.109Z,79.30
2018-02-08T20:37:22.275Z,79.30
2018-02-08T20:38:58.993Z,79.20
2018-02-08T20:40:36.362Z,79.40
2018-02-08T20:42:16.976Z,79.40
2018-02-08T20:43:56.638Z,79.40
2018-02-08T20:45:33.782Z,79.50
2018-02-08T20:47:11.211Z,79.50
2018-02-08T20:48:47.856Z,79.40
2018-02-08T20:50:34.149Z,79.40
2018-02-08T20:52:10.936Z,79.60
2018-02-08T20:53:47.626Z,79.40
2018-02-08T20:55:23.956Z,79.50
2018-02-08T20:57:01.068Z,79.50
2018-02-08T20:58:37.643Z,80.60
2018-02-08T21:00:16.250Z,79.80
2018-02-08T21:01:52.882Z,79.80
2018-02-08T21:03:30.394Z,80.00
2018-02-08T21:05:06.877Z,80.10
2018-02-08T21:06:43.417Z,80.30
2018-02-08T21:08:19.961Z,80.20
2018-02-08T21:09:57.501Z,80.70
2018-02-08T21:11:34.253Z,80.70
2018-02-08T21:13:11.708Z,80.70
2018-02-08T21:14:48.176Z,80.80
2018-02-08T21:16:24.953Z,80.90
2018-02-08T21:18:01.422Z,80.80
2018-02-08T21:19:38.188Z,81.50
2018-02-08T21:21:15.716Z,80.30
2018-02-08T21:22:53.109Z,80.60
2018-02-08T21:24:31.332Z,80.90
2018-02-08T21:26:07.809Z,80.90
2018-02-08T21:27:44.290Z,81.00
2018-02-08T21:29:21.076Z,81.00
2018-02-08T21:30:57.917Z,81.00
2018-02-08T21:32:34.541Z,81.00
2018-02-08T21:34:11.010Z,81.20
2018-02-08T21:35:48.610Z,81.20
2018-02-08T21:37:25.141Z,81.00
2018-02-08T21:39:01.787Z,81.20
2018-02-08T21:40:38.415Z,81.20
2018-02-08T21:42:16.058Z,81.40
2018-02-08T21:43:52.978Z,81.40
2018-02-08T21:45:29.565Z,81.60
2018-02-08T21:47:07.043Z,81.90
2018-02-08T21:48:43.925Z,81.80
2018-02-08T21:50:20.451Z,81.90
2018-02-08T21:51:57.000Z,81.90
2018-02-08T21:53:35.178Z,81.20
2018-02-08T21:55:12.290Z,81.10
2018-02-08T21:56:48.849Z,80.70
2018-02-08T21:58:26.216Z,80.30
2018-02-08T22:00:04.549Z,81.10
2018-02-08T22:01:41.502Z,80.60
2018-02-08T22:03:18.864Z,80.90
2018-02-08T22:04:56.255Z,80.90
2018-02-08T22:06:32.709Z,81.20
2018-02-08T22:08:09.589Z,81.50
2018-02-08T22:09:46.067Z,81.60
2018-02-08T22:11:23.123Z,81.50
2018-02-08T22:12:59.624Z,81.70
2018-02-08T22:14:37.447Z,81.70
2018-02-08T22:16:14.835Z,81.70
2018-02-08T22:17:51.439Z,81.70
2018-02-08T22:19:27.884Z,81.80
2018-02-08T22:21:04.796Z,82.60
2018-02-08T22:22:41.274Z,81.80
2018-02-08T22:24:17.988Z,81.80
2018-02-08T22:25:54.429Z,81.90
2018-02-08T22:27:34.109Z,82.30
2018-02-08T22:29:11.503Z,82.70
2018-02-08T22:30:51.160Z,82.70
2018-02-08T22:32:29.110Z,83.00
2018-02-08T22:34:06.028Z,82.90
2018-02-08T22:35:42.483Z,83.10
2018-02-08T22:37:18.929Z,83.10
2018-02-08T22:38:55.329Z,83.20
2018-02-08T22:40:32.194Z,83.30
2018-02-08T22:42:08.709Z,83.50
2018-02-08T22:43:45.247Z,83.40
2018-02-08T22:45:21.637Z,83.30
2018-02-08T22:46:58.993Z,83.60
2018-02-08T22:48:35.479Z,83.80
2018-02-08T22:50:13.806Z,84.70
2018-02-08T22:51:50.395Z,84.70
2018-02-08T22:53:27.296Z,85.00
2018-02-08T22:55:03.757Z,85.40
2018-02-08T22:56:41.088Z,86.10
2018-02-08T22:58:18.446Z,85.90
2018-02-08T22:59:55.289Z,86.20
2018-02-08T23:01:31.810Z,86.40
2018-02-08T23:03:08.271Z,86.50
2018-02-08T23:04:44.697Z,86.60
2018-02-08T23:06:22.728Z,87.00
2018-02-08T23:07:59.177Z,87.00
2018-02-08T23:09:35.649Z,87.00
2018-02-08T23:11:13.107Z,87.20
2018-02-08T23:12:49.865Z,87.20
2018-02-08T23:14:27.171Z,87.20
2018-02-08T23:16:03.807Z,87.20
2018-02-08T23:17:40.628Z,87.10
2018-02-08T23:19:17.691Z,87.20